Time;durP1;ratioP1;P1;durP2;ratioP2;P2;SDS_P1;SDS_P2;PMS_P1;PMS_P2;Temp;Humidity;BMP_temperature;BMP_pressure;BME280_temperature;BME280_humidity;BME280_pressure;Samples;Min_cycle;Max_cycle;Signal;HPM_P1;HPM_P2
2022/06/19 19:09:56;;;;;;;5.67;2.30;;;;;;;32.97;33.33;98433.95;1840483;74;28398;-66
2022/06/19 19:12:46;;;;;;;2.12;1.98;;;;;;;32.97;33.40;98436.16;1849945;75;28334;-68
2022/06/19 19:15:37;;;;;;;2.20;2.00;;;;;;;32.81;33.40;98430.86;1854555;75;28459;-62
2022/06/19 19:18:25;;;;;;;2.40;2.20;;;;;;;32.72;32.44;98432.23;1860949;75;28328;-65
2022/06/19 19:21:16;;;;;;;3.02;2.27;;;;;;;32.60;29.32;98428.48;1845599;75;28273;-62
2022/06/19 19:24:06;;;;;;;3.85;2.37;;;;;;;32.62;29.34;98435.36;1841142;77;28339;-67
2022/06/19 19:26:58;;;;;;;3.02;2.27;;;;;;;32.68;29.94;98433.21;1835396;76;28288;-67
2022/06/19 19:29:49;;;;;;;2.58;2.30;;;;;;;32.60;28.05;98436.83;1856838;75;28278;-70
2022/06/19 19:32:41;;;;;;;3.15;2.30;;;;;;;32.56;27.64;98445.55;1840905;75;28383;-69
2022/06/19 19:35:33;;;;;;;3.72;2.60;;;;;;;32.60;27.50;98435.44;1845069;77;28449;-64
2022/06/19 19:38:24;;;;;;;3.87;2.50;;;;;;;32.55;26.80;98442.54;1850483;76;28340;-69
2022/06/19 19:41:13;;;;;;;3.30;2.60;;;;;;;32.53;26.53;98445.66;1840298;76;28226;-63
2022/06/19 19:44:01;;;;;;;4.30;2.98;;;;;;;32.63;26.28;98447.27;1843037;75;28812;-64
2022/06/19 19:46:54;;;;;;;4.35;2.98;;;;;;;32.68;25.70;98453.50;1845158;76;28481;-63
2022/06/19 19:49:44;;;;;;;4.80;3.22;;;;;;;32.77;25.61;98449.92;1843708;76;28317;-66
2022/06/19 19:52:33;;;;;;;3.35;3.00;;;;;;;32.85;25.26;98463.00;1847190;75;28313;-62
2022/06/19 19:55:24;;;;;;;5.83;3.10;;;;;;;32.87;24.86;98468.48;1851528;75;28421;-69
2022/06/19 19:58:16;;;;;;;3.30;3.00;;;;;;;32.94;24.84;98468.81;1870998;75;28262;-68
2022/06/19 20:01:05;;;;;;;4.33;3.62;;;;;;;32.97;24.74;98457.59;1837157;77;28275;-65
2022/06/19 20:03:53;;;;;;;5.17;3.60;;;;;;;32.99;24.35;98469.22;1877928;75;28310;-66
2022/06/19 20:12:55;;;;;;;5.33;3.50;;;;;;;33.08;23.92;98479.80;1820148;77;28935;-68
2022/06/19 20:15:44;;;;;;;4.95;3.87;;;;;;;33.09;23.97;98486.45;1841139;76;28764;-63
2022/06/19 20:18:34;;;;;;;6.03;4.00;;;;;;;33.14;23.86;98475.72;1841537;76;28269;-65
2022/06/19 20:21:25;;;;;;;4.87;3.80;;;;;;;33.19;23.72;98488.05;1846996;76;28430;-68
2022/06/19 20:24:19;;;;;;;4.45;3.50;;;;;;;33.16;23.80;98494.30;1847602;75;28322;-65
2022/06/19 20:27:13;;;;;;;4.78;3.60;;;;;;;33.13;23.74;98486.59;1838946;75;28281;-70
2022/06/19 20:30:07;;;;;;;3.83;3.52;;;;;;;33.17;23.63;98492.56;1837652;76;28374;-73
2022/06/19 20:32:58;;;;;;;4.75;3.35;;;;;;;33.12;23.65;98489.94;1853010;75;28281;-73
2022/06/19 20:35:48;;;;;;;4.23;3.83;;;;;;;33.15;23.71;98487.08;1851434;76;28612;-70
2022/06/19 20:38:40;;;;;;;3.73;3.43;;;;;;;33.12;23.60;98487.16;1809158;77;28487;-69
2022/06/19 20:44:36;;;;;;;4.85;3.20;;;;;;;33.10;23.36;98476.11;1777047;78;28354;-63
2022/06/19 20:47:28;;;;;;;4.30;3.50;;;;;;;33.06;23.78;98482.09;1852127;75;28305;-60
2022/06/19 20:50:23;;;;;;;4.50;3.40;;;;;;;33.04;23.35;98470.48;1846480;76;28232;-64
2022/06/19 20:53:14;;;;;;;4.57;3.37;;;;;;;33.04;23.43;98469.91;1815415;78;28476;-60
2022/06/19 20:56:03;;;;;;;6.55;4.17;;;;;;;32.94;23.30;98470.20;1858567;76;28224;-63
2022/06/19 20:58:51;;;;;;;4.05;3.00;;;;;;;33.01;23.43;98467.77;1851734;76;28280;-62
2022/06/19 21:01:40;;;;;;;3.20;2.90;;;;;;;33.01;23.35;98464.99;1852485;76;28327;-66
2022/06/19 21:04:29;;;;;;;6.15;3.10;;;;;;;33.02;23.28;98458.30;1843256;76;28217;-71
2022/06/19 21:07:23;;;;;;;3.77;3.37;;;;;;;33.00;23.22;98459.13;1847635;75;28250;-69
2022/06/19 21:10:14;;;;;;;3.37;3.10;;;;;;;32.93;23.17;98453.84;1863098;75;28183;-72
2022/06/19 21:13:05;;;;;;;3.87;2.98;;;;;;;32.95;23.20;98469.06;1842500;76;28320;-67
2022/06/19 21:15:55;;;;;;;3.30;3.00;;;;;;;32.92;23.22;98464.72;1820655;77;28458;-67
2022/06/19 21:18:43;;;;;;;4.03;3.08;;;;;;;32.92;23.19;98470.28;1848700;75;30404;-71
2022/06/19 21:21:35;;;;;;;3.87;3.00;;;;;;;33.03;23.33;98478.56;1845166;76;28231;-67
2022/06/19 21:24:25;;;;;;;4.00;2.80;;;;;;;32.99;23.04;98480.34;1859243;76;28292;-67
2022/06/19 21:27:14;;;;;;;3.72;2.70;;;;;;;32.98;23.02;98480.12;1853844;75;38830;-69
2022/06/19 21:30:03;;;;;;;3.00;2.80;;;;;;;32.94;22.96;98489.67;1846643;77;28340;-66
2022/06/19 21:32:52;;;;;;;3.17;2.70;;;;;;;32.92;22.86;98490.58;1851632;75;38645;-68
2022/06/19 21:35:41;;;;;;;4.67;2.87;;;;;;;32.95;22.81;98491.33;1848896;77;28332;-63
2022/06/19 21:38:33;;;;;;;3.60;2.70;;;;;;;32.82;22.81;98492.28;1845041;75;28614;-63
2022/06/19 21:41:28;;;;;;;5.45;2.70;;;;;;;32.87;22.78;98498.26;1780527;77;28363;-65
2022/06/19 21:44:19;;;;;;;3.00;2.60;;;;;;;32.89;22.83;98505.14;1775083;78;28502;-64
2022/06/19 21:47:07;;;;;;;3.00;2.80;;;;;;;32.83;22.72;98509.80;1853211;75;28291;-63
2022/06/19 21:49:56;;;;;;;5.50;2.90;;;;;;;32.65;22.61;98503.41;1850215;75;28292;-63
2022/06/19 21:52:45;;;;;;;3.35;2.60;;;;;;;32.67;22.62;98522.77;1836081;77;28308;-64
2022/06/19 21:55:39;;;;;;;3.40;2.42;;;;;;;32.61;22.69;98519.09;1805452;77;28405;-66
2022/06/19 21:58:26;;;;;;;4.58;2.77;;;;;;;32.53;22.59;98519.34;1845206;75;28291;-62
2022/06/19 22:01:14;;;;;;;2.20;2.00;;;;;;;32.43;22.85;98539.06;1848882;75;28352;-61
2022/06/19 22:04:03;;;;;;;4.30;2.45;;;;;;;32.50;23.12;98519.98;1850351;75;28338;-60
2022/06/19 22:06:55;;;;;;;3.85;2.12;;;;;;;32.44;23.23;98535.72;1858026;75;28413;-63
2022/06/19 22:12:48;;;;;;;3.22;2.10;;;;;;;32.35;23.57;98542.63;1836873;75;28282;-63
2022/06/19 22:15:36;;;;;;;2.77;2.05;;;;;;;32.28;24.67;98551.20;1857685;75;28326;-64
2022/06/19 22:18:25;;;;;;;2.55;2.12;;;;;;;32.33;25.46;98557.42;1849882;76;28304;-62
2022/06/19 22:21:15;;;;;;;2.00;1.90;;;;;;;32.00;26.41;98563.89;1821836;77;28336;-62
2022/06/19 22:24:05;;;;;;;2.08;1.98;;;;;;;32.04;26.54;98576.59;1833917;77;28278;-63
2022/06/19 22:26:56;;;;;;;2.10;1.87;;;;;;;32.08;26.74;98579.80;1848287;76;28419;-62
2022/06/19 22:29:46;;;;;;;2.65;2.05;;;;;;;32.08;26.82;98574.25;1819056;77;28486;-62
2022/06/19 22:32:35;;;;;;;2.00;1.87;;;;;;;32.13;26.89;98586.36;1763569;79;28502;-61
2022/06/19 22:35:26;;;;;;;3.25;1.80;;;;;;;32.24;27.11;98596.88;1805702;78;28477;-62
2022/06/19 22:38:18;;;;;;;2.20;2.00;;;;;;;32.20;26.93;98591.71;1817428;78;28499;-61
2022/06/19 22:41:07;;;;;;;2.00;1.90;;;;;;;32.21;26.95;98585.00;1798732;78;28943;-63
2022/06/19 22:43:56;;;;;;;4.28;2.05;;;;;;;32.24;26.96;98590.48;1844789;77;28354;-63
2022/06/19 22:46:47;;;;;;;1.92;1.82;;;;;;;32.37;27.02;98597.33;1837844;77;28250;-63
2022/06/19 22:49:35;;;;;;;2.00;1.90;;;;;;;32.36;26.96;98598.48;1807344;77;28525;-62
2022/06/19 22:52:24;;;;;;;2.12;1.90;;;;;;;32.43;27.04;98582.72;1772770;79;28262;-62
2022/06/19 22:55:12;;;;;;;3.35;1.90;;;;;;;32.52;27.31;98602.50;1781734;79;28439;-62
2022/06/19 22:58:04;;;;;;;2.20;2.00;;;;;;;32.62;27.36;98598.61;1785961;79;28446;-62
2022/06/19 23:04:01;;;;;;;4.42;2.22;;;;;;;32.64;27.64;98587.41;1779192;80;28520;-62
2022/06/19 23:06:51;;;;;;;1.87;1.77;;;;;;;32.64;27.64;98586.59;1837008;77;28280;-63
2022/06/19 23:09:41;;;;;;;2.10;1.90;;;;;;;32.65;27.69;98604.33;1842617;77;28411;-63
2022/06/19 23:12:31;;;;;;;2.35;1.87;;;;;;;32.67;27.72;98614.55;1846876;76;28288;-62
2022/06/19 23:15:19;;;;;;;2.10;1.90;;;;;;;32.69;27.78;98615.64;1827415;76;28770;-62
2022/06/19 23:18:08;;;;;;;1.92;1.82;;;;;;;32.71;27.67;98621.70;1845749;76;28332;-62
2022/06/19 23:20:57;;;;;;;2.00;1.90;;;;;;;32.72;27.63;98619.98;1840095;76;28340;-63
2022/06/19 23:23:45;;;;;;;2.00;1.90;;;;;;;32.72;27.70;98628.32;1838139;76;28347;-61
2022/06/19 23:26:33;;;;;;;2.65;1.85;;;;;;;32.75;27.68;98622.69;1824785;77;28331;-63
2022/06/19 23:29:23;;;;;;;1.70;1.60;;;;;;;32.75;27.66;98617.12;1850585;76;31202;-63
2022/06/19 23:32:12;;;;;;;1.67;1.60;;;;;;;32.74;27.78;98635.77;1855121;76;28239;-62
2022/06/19 23:35:00;;;;;;;2.08;1.72;;;;;;;32.75;27.69;98626.30;1843479;76;29270;-63
2022/06/19 23:37:52;;;;;;;1.90;1.80;;;;;;;32.75;27.72;98613.78;1849723;76;28311;-62
2022/06/19 23:40:40;;;;;;;1.98;1.70;;;;;;;32.77;27.79;98633.51;1849870;76;28356;-62
2022/06/19 23:43:29;;;;;;;1.67;1.67;;;;;;;32.75;28.04;98628.25;1844456;76;28290;-62
2022/06/19 23:46:20;;;;;;;1.87;1.52;;;;;;;32.73;28.03;98628.58;1826408;77;28394;-62
2022/06/19 23:49:11;;;;;;;2.75;1.70;;;;;;;32.73;28.24;98627.19;1834203;77;28198;-62
2022/06/19 23:52:00;;;;;;;2.30;1.60;;;;;;;32.72;27.91;98619.98;1839127;76;28435;-63
2022/06/19 23:54:48;;;;;;;2.30;1.55;;;;;;;32.74;28.01;98632.19;1855666;76;28254;-63
2022/06/19 23:57:39;;;;;;;2.02;1.60;;;;;;;32.73;27.97;98638.32;1848002;76;28371;-63
